Prosperity — WDB9911 — position and weather

sailwx.info

Track history (hours):
 
Tides and Currents Weather Stations Pressure Air Temp Water Temp Dewpoint Dewpoint Depression Visibility Wind Speed Wind Dir Waves Ship Positions

Prosperity

Owner: American River Transportation Company, St Louis, MO. More information available from US FCC via Universal Licensing System and Coast Guard Vessel Documentation Center.

Last reported at 2017-Jun-22 23:27 UTC. Time now 2017-Jun-27 22:21 UTC.
Position N 40°43' W 091°07'.

Length 51 m; draft 3.4 m.

Type: Towing. MMSI: 366984960.

Date/timePositionNaut miles runAvg speedWind from/ knotsBaromVisibWave heightAir tempDewpointWater temp
2017-Jun-22 23:27N 40°43' W 091°07'2 5.2
2017-Jun-22 23:00N 40°46' W 091°06'2 4.8
2017-Jun-22 22:30N 40°48' W 091°06'1 2.0
2017-Jun-22 22:00N 40°49' W 091°06'3 5.1
2017-Jun-22 21:30N 40°51' W 091°03'2 4.9
2017-Jun-22 21:00N 40°53' W 091°02'0 0.4
2017-Jun-22 20:30N 40°53' W 091°01'0 0.2
2017-Jun-22 20:00N 40°53' W 091°01'0 0.1
2017-Jun-22 19:30N 40°53' W 091°01'0 0.7
2017-Jun-22 19:00N 40°53' W 091°01'0 0.0
2017-Jun-22 18:30N 40°53' W 091°01'0 0.0
2017-Jun-22 18:00N 40°53' W 091°01'0 0.0
2017-Jun-22 17:30N 40°53' W 091°01'0 0.0
2017-Jun-22 17:00N 40°53' W 091°01'0 0.0
2017-Jun-22 16:30N 40°53' W 091°01'0 0.0
2017-Jun-22 16:00N 40°53' W 091°01'0 0.0
2017-Jun-22 15:30N 40°53' W 091°01'0 0.0
2017-Jun-22 15:00N 40°53' W 091°01'0 0.0
2017-Jun-22 14:00N 40°53' W 091°01'1 3.0
2017-Jun-22 13:30N 40°54' W 090°60'2 4.5
2017-Jun-22 13:00N 40°56' W 090°58'3 5.4
2017-Jun-22 12:30N 40°59' W 090°57'3 5.1
2017-Jun-22 12:00N 41°01' W 090°57'3 5.4
2017-Jun-22 11:30N 41°04' W 090°57'3 5.6
2017-Jun-22 11:00N 41°07' W 090°57'7 4.8
2017-Jun-22 09:35N 41°11' W 091°03'0 0.8
2017-Jun-22 09:30N 41°11' W 091°03'9 1.9
2017-Jun-22 04:42N 41°21' W 091°04'1 5.7
2017-Jun-22 04:30N 41°22' W 091°04'3 5.2
2017-Jun-22 03:58N 41°24' W 091°04'2 4.9
2017-Jun-22 03:30N 41°25' W 091°01'  
2017-Jun-19 10:03N 41°20' W 091°04'0 5.0
2017-Jun-19 09:58N 41°19' W 091°04'7 4.2
2017-Jun-19 08:19N 41°12' W 091°04'1 2.7
2017-Jun-19 07:59N 41°12' W 091°03'0 0.2
2017-Jun-19 07:21N 41°11' W 091°03'0 0.0
2017-Jun-19 06:55N 41°11' W 091°03'0 0.7
2017-Jun-19 06:24N 41°11' W 091°03'0 0.6
2017-Jun-19 05:53N 41°11' W 091°03'1 3.1
2017-Jun-19 05:24N 41°10' W 091°02'2 3.7
2017-Jun-19 04:54N 41°09' W 090°59'2 4.4
2017-Jun-19 04:30N 41°08' W 090°58'2 4.4
2017-Jun-19 04:00N 41°06' W 090°57'2 4.6
2017-Jun-19 03:30N 41°03' W 090°57'2 4.7
2017-Jun-19 03:00N 41°01' W 090°57'2 4.7
2017-Jun-19 02:30N 40°59' W 090°57'2 4.5
2017-Jun-19 02:00N 40°56' W 090°57'2 4.1
2017-Jun-19 01:30N 40°55' W 090°59'2 4.6
2017-Jun-19 01:00N 40°53' W 091°01'0 0.2
2017-Jun-19 00:30N 40°53' W 091°01'0 0.0
2017-Jun-19 00:00N 40°53' W 091°01'0 0.0
2017-Jun-18 23:30N 40°53' W 091°01'0 0.0
2017-Jun-18 23:00N 40°53' W 091°01'0 0.0
2017-Jun-18 22:29N 40°53' W 091°01'0 0.0
2017-Jun-18 22:00N 40°53' W 091°01'0 0.0
2017-Jun-18 21:30N 40°53' W 091°01'0 0.0
2017-Jun-18 21:00N 40°53' W 091°01'0 0.0
2017-Jun-18 20:30N 40°53' W 091°01'0 0.0
2017-Jun-18 20:00N 40°53' W 091°01'0 0.0
2017-Jun-18 19:30N 40°53' W 091°01'0 0.0
2017-Jun-18 19:00N 40°53' W 091°01'0 0.0
2017-Jun-18 18:30N 40°53' W 091°01'0 0.0
2017-Jun-18 18:00N 40°53' W 091°01'0 0.0
2017-Jun-18 17:30N 40°53' W 091°01'0 0.9
2017-Jun-18 17:00N 40°53' W 091°01'0 0.2
2017-Jun-18 16:30N 40°53' W 091°02'0 0.1
2017-Jun-18 16:00N 40°53' W 091°02'1 2.3
2017-Jun-18 15:30N 40°52' W 091°03'0 0.0
2017-Jun-18 15:00N 40°52' W 091°03'0 0.0
2017-Jun-18 14:00N 40°52' W 091°03'1 1.2
2017-Jun-18 13:30N 40°51' W 091°03'2 4.1
2017-Jun-18 13:00N 40°50' W 091°05'2 4.3
2017-Jun-18 12:30N 40°48' W 091°06'2 4.8
2017-Jun-18 11:59N 40°45' W 091°06'2 4.6
2017-Jun-18 11:29N 40°43' W 091°07'  
Track history (hours):
 
Tides and Currents Weather Stations Pressure Air Temp Water Temp Dewpoint Dewpoint Depression Visibility Wind Speed Wind Dir Waves Ship Positions

Prosperity

Owner: American River Transportation Company, St Louis, MO. More information available from US FCC via Universal Licensing System and Coast Guard Vessel Documentation Center.

Last reported at 2017-Jun-22 23:27 UTC. Time now 2017-Jun-27 22:21 UTC.
Position N 40°43' W 091°07'.

Length 51 m; draft 3.4 m.

Type: Towing. MMSI: 366984960.

Date/timePositionNaut miles runAvg speedWind from/ knotsBaromVisibWave heightAir tempDewpointWater temp
2017-Jun-22 23:27N 40°43' W 091°07'2 5.2
2017-Jun-22 23:00N 40°46' W 091°06'2 4.8
2017-Jun-22 22:30N 40°48' W 091°06'1 2.0
2017-Jun-22 22:00N 40°49' W 091°06'3 5.1
2017-Jun-22 21:30N 40°51' W 091°03'2 4.9
2017-Jun-22 21:00N 40°53' W 091°02'0 0.4
2017-Jun-22 20:30N 40°53' W 091°01'0 0.2
2017-Jun-22 20:00N 40°53' W 091°01'0 0.1
2017-Jun-22 19:30N 40°53' W 091°01'0 0.7
2017-Jun-22 19:00N 40°53' W 091°01'0 0.0
2017-Jun-22 18:30N 40°53' W 091°01'0 0.0
2017-Jun-22 18:00N 40°53' W 091°01'0 0.0
2017-Jun-22 17:30N 40°53' W 091°01'0 0.0
2017-Jun-22 17:00N 40°53' W 091°01'0 0.0
2017-Jun-22 16:30N 40°53' W 091°01'0 0.0
2017-Jun-22 16:00N 40°53' W 091°01'0 0.0
2017-Jun-22 15:30N 40°53' W 091°01'0 0.0
2017-Jun-22 15:00N 40°53' W 091°01'0 0.0
2017-Jun-22 14:00N 40°53' W 091°01'1 3.0
2017-Jun-22 13:30N 40°54' W 090°60'2 4.5
2017-Jun-22 13:00N 40°56' W 090°58'3 5.4
2017-Jun-22 12:30N 40°59' W 090°57'3 5.1
2017-Jun-22 12:00N 41°01' W 090°57'3 5.4
2017-Jun-22 11:30N 41°04' W 090°57'3 5.6
2017-Jun-22 11:00N 41°07' W 090°57'7 4.8
2017-Jun-22 09:35N 41°11' W 091°03'0 0.8
2017-Jun-22 09:30N 41°11' W 091°03'9 1.9
2017-Jun-22 04:42N 41°21' W 091°04'1 5.7
2017-Jun-22 04:30N 41°22' W 091°04'3 5.2
2017-Jun-22 03:58N 41°24' W 091°04'2 4.9
2017-Jun-22 03:30N 41°25' W 091°01'  
2017-Jun-19 10:03N 41°20' W 091°04'0 5.0
2017-Jun-19 09:58N 41°19' W 091°04'7 4.2
2017-Jun-19 08:19N 41°12' W 091°04'1 2.7
2017-Jun-19 07:59N 41°12' W 091°03'0 0.2
2017-Jun-19 07:21N 41°11' W 091°03'0 0.0
2017-Jun-19 06:55N 41°11' W 091°03'0 0.7
2017-Jun-19 06:24N 41°11' W 091°03'0 0.6
2017-Jun-19 05:53N 41°11' W 091°03'1 3.1
2017-Jun-19 05:24N 41°10' W 091°02'2 3.7
2017-Jun-19 04:54N 41°09' W 090°59'2 4.4
2017-Jun-19 04:30N 41°08' W 090°58'2 4.4
2017-Jun-19 04:00N 41°06' W 090°57'2 4.6
2017-Jun-19 03:30N 41°03' W 090°57'2 4.7
2017-Jun-19 03:00N 41°01' W 090°57'2 4.7
2017-Jun-19 02:30N 40°59' W 090°57'2 4.5
2017-Jun-19 02:00N 40°56' W 090°57'2 4.1
2017-Jun-19 01:30N 40°55' W 090°59'2 4.6
2017-Jun-19 01:00N 40°53' W 091°01'0 0.2
2017-Jun-19 00:30N 40°53' W 091°01'0 0.0
2017-Jun-19 00:00N 40°53' W 091°01'0 0.0
2017-Jun-18 23:30N 40°53' W 091°01'0 0.0
2017-Jun-18 23:00N 40°53' W 091°01'0 0.0
2017-Jun-18 22:29N 40°53' W 091°01'0 0.0
2017-Jun-18 22:00N 40°53' W 091°01'0 0.0
2017-Jun-18 21:30N 40°53' W 091°01'0 0.0
2017-Jun-18 21:00N 40°53' W 091°01'0 0.0
2017-Jun-18 20:30N 40°53' W 091°01'0 0.0
2017-Jun-18 20:00N 40°53' W 091°01'0 0.0
2017-Jun-18 19:30N 40°53' W 091°01'0 0.0
2017-Jun-18 19:00N 40°53' W 091°01'0 0.0
2017-Jun-18 18:30N 40°53' W 091°01'0 0.0
2017-Jun-18 18:00N 40°53' W 091°01'0 0.0
2017-Jun-18 17:30N 40°53' W 091°01'0 0.9
2017-Jun-18 17:00N 40°53' W 091°01'0 0.2
2017-Jun-18 16:30N 40°53' W 091°02'0 0.1
2017-Jun-18 16:00N 40°53' W 091°02'1 2.3
2017-Jun-18 15:30N 40°52' W 091°03'0 0.0
2017-Jun-18 15:00N 40°52' W 091°03'0 0.0
2017-Jun-18 14:00N 40°52' W 091°03'1 1.2
2017-Jun-18 13:30N 40°51' W 091°03'2 4.1
2017-Jun-18 13:00N 40°50' W 091°05'2 4.3
2017-Jun-18 12:30N 40°48' W 091°06'2 4.8
2017-Jun-18 11:59N 40°45' W 091°06'2 4.6
2017-Jun-18 11:29N 40°43' W 091°07'  

Dump ship's entire track history